sensor_id;sensor_type;location;lat;lon;timestamp;P1;durP1;ratioP1;P2;durP2;ratioP2
69381;SDS011;56560;50.692;12.844;2022-12-07T00:03:39;20.08;;;7.18;;
69381;SDS011;56560;50.692;12.844;2022-12-07T00:06:06;16.77;;;6.03;;
69381;SDS011;56560;50.692;12.844;2022-12-07T00:08:34;19.23;;;6.35;;
69381;SDS011;56560;50.692;12.844;2022-12-07T00:11:02;21.48;;;6.78;;
69381;SDS011;56560;50.692;12.844;2022-12-07T00:13:31;19.63;;;6.30;;
69381;SDS011;56560;50.692;12.844;2022-12-07T00:16:07;19.05;;;6.72;;
69381;SDS011;56560;50.692;12.844;2022-12-07T00:18:33;22.63;;;7.13;;
69381;SDS011;56560;50.692;12.844;2022-12-07T00:21:03;20.35;;;6.70;;
69381;SDS011;56560;50.692;12.844;2022-12-07T00:23:38;20.85;;;6.55;;
69381;SDS011;56560;50.692;12.844;2022-12-07T00:26:05;21.17;;;6.90;;
69381;SDS011;56560;50.692;12.844;2022-12-07T00:28:32;22.60;;;7.50;;
69381;SDS011;56560;50.692;12.844;2022-12-07T00:31:02;18.33;;;6.03;;
69381;SDS011;56560;50.692;12.844;2022-12-07T00:33:30;23.85;;;7.35;;
69381;SDS011;56560;50.692;12.844;2022-12-07T00:35:56;22.08;;;7.65;;
69381;SDS011;56560;50.692;12.844;2022-12-07T00:38:23;25.33;;;8.00;;
69381;SDS011;56560;50.692;12.844;2022-12-07T00:40:58;23.05;;;7.80;;
69381;SDS011;56560;50.692;12.844;2022-12-07T00:43:25;24.03;;;7.53;;
69381;SDS011;56560;50.692;12.844;2022-12-07T00:45:51;22.27;;;6.82;;
69381;SDS011;56560;50.692;12.844;2022-12-07T00:48:17;23.73;;;7.68;;
69381;SDS011;56560;50.692;12.844;2022-12-07T00:50:43;21.63;;;6.93;;
69381;SDS011;56560;50.692;12.844;2022-12-07T00:53:08;17.65;;;5.90;;
69381;SDS011;56560;50.692;12.844;2022-12-07T00:55:34;22.50;;;7.40;;
69381;SDS011;56560;50.692;12.844;2022-12-07T00:58:01;20.52;;;6.55;;
69381;SDS011;56560;50.692;12.844;2022-12-07T01:00:27;21.92;;;7.20;;
69381;SDS011;56560;50.692;12.844;2022-12-07T01:02:53;21.58;;;7.55;;
69381;SDS011;56560;50.692;12.844;2022-12-07T01:05:18;22.67;;;7.50;;
69381;SDS011;56560;50.692;12.844;2022-12-07T01:07:44;19.90;;;6.83;;
69381;SDS011;56560;50.692;12.844;2022-12-07T01:10:11;20.35;;;6.93;;
69381;SDS011;56560;50.692;12.844;2022-12-07T01:12:37;22.42;;;7.55;;
69381;SDS011;56560;50.692;12.844;2022-12-07T01:15:03;22.83;;;8.00;;
69381;SDS011;56560;50.692;12.844;2022-12-07T01:17:29;23.00;;;7.90;;
69381;SDS011;56560;50.692;12.844;2022-12-07T01:19:55;22.63;;;7.55;;
69381;SDS011;56560;50.692;12.844;2022-12-07T01:22:20;23.93;;;7.63;;
69381;SDS011;56560;50.692;12.844;2022-12-07T01:24:46;16.83;;;6.13;;
69381;SDS011;56560;50.692;12.844;2022-12-07T01:27:12;14.57;;;4.97;;
69381;SDS011;56560;50.692;12.844;2022-12-07T01:29:38;20.98;;;7.13;;
69381;SDS011;56560;50.692;12.844;2022-12-07T01:32:04;20.87;;;6.63;;
69381;SDS011;56560;50.692;12.844;2022-12-07T01:34:30;18.52;;;6.75;;
69381;SDS011;56560;50.692;12.844;2022-12-07T01:36:56;19.20;;;6.30;;
69381;SDS011;56560;50.692;12.844;2022-12-07T01:39:22;18.50;;;5.93;;
69381;SDS011;56560;50.692;12.844;2022-12-07T01:41:48;14.97;;;4.60;;
69381;SDS011;56560;50.692;12.844;2022-12-07T01:47:01;18.35;;;5.80;;
69381;SDS011;56560;50.692;12.844;2022-12-07T01:49:33;15.80;;;5.53;;
69381;SDS011;56560;50.692;12.844;2022-12-07T01:54:46;13.77;;;4.57;;
69381;SDS011;56560;50.692;12.844;2022-12-07T01:57:14;13.68;;;4.55;;
69381;SDS011;56560;50.692;12.844;2022-12-07T01:59:42;13.65;;;3.85;;
69381;SDS011;56560;50.692;12.844;2022-12-07T02:02:11;15.38;;;4.75;;
69381;SDS011;56560;50.692;12.844;2022-12-07T02:04:43;17.90;;;5.30;;
69381;SDS011;56560;50.692;12.844;2022-12-07T02:07:09;14.43;;;5.10;;
69381;SDS011;56560;50.692;12.844;2022-12-07T02:09:35;14.73;;;5.28;;
69381;SDS011;56560;50.692;12.844;2022-12-07T02:12:01;16.77;;;5.30;;
69381;SDS011;56560;50.692;12.844;2022-12-07T02:14:27;14.40;;;4.60;;
69381;SDS011;56560;50.692;12.844;2022-12-07T02:17:14;15.25;;;4.75;;
69381;SDS011;56560;50.692;12.844;2022-12-07T02:28:34;11.10;;;3.90;;
69381;SDS011;56560;50.692;12.844;2022-12-07T02:31:19;11.52;;;3.97;;
69381;SDS011;56560;50.692;12.844;2022-12-07T02:33:55;14.17;;;4.10;;
69381;SDS011;56560;50.692;12.844;2022-12-07T02:36:31;11.85;;;3.50;;
69381;SDS011;56560;50.692;12.844;2022-12-07T02:39:15;13.07;;;4.10;;
69381;SDS011;56560;50.692;12.844;2022-12-07T02:41:49;8.20;;;2.72;;
69381;SDS011;56560;50.692;12.844;2022-12-07T02:44:20;10.43;;;3.30;;
69381;SDS011;56560;50.692;12.844;2022-12-07T02:46:51;11.60;;;3.93;;
69381;SDS011;56560;50.692;12.844;2022-12-07T02:49:27;11.00;;;3.45;;
69381;SDS011;56560;50.692;12.844;2022-12-07T02:51:54;13.50;;;3.97;;
69381;SDS011;56560;50.692;12.844;2022-12-07T02:54:20;14.05;;;4.30;;
69381;SDS011;56560;50.692;12.844;2022-12-07T02:59:47;9.80;;;3.23;;
69381;SDS011;56560;50.692;12.844;2022-12-07T03:18:18;11.82;;;3.35;;
69381;SDS011;56560;50.692;12.844;2022-12-07T03:20:48;9.98;;;2.88;;
69381;SDS011;56560;50.692;12.844;2022-12-07T03:23:16;12.05;;;3.25;;
69381;SDS011;56560;50.692;12.844;2022-12-07T03:25:45;8.83;;;3.00;;
69381;SDS011;56560;50.692;12.844;2022-12-07T03:28:14;11.77;;;3.50;;
69381;SDS011;56560;50.692;12.844;2022-12-07T03:30:45;13.23;;;4.03;;
69381;SDS011;56560;50.692;12.844;2022-12-07T03:33:26;9.85;;;3.13;;
69381;SDS011;56560;50.692;12.844;2022-12-07T03:41:12;11.32;;;3.58;;
69381;SDS011;56560;50.692;12.844;2022-12-07T03:43:43;10.40;;;3.22;;
69381;SDS011;56560;50.692;12.844;2022-12-07T03:48:58;11.35;;;3.35;;
69381;SDS011;56560;50.692;12.844;2022-12-07T03:51:36;10.40;;;3.33;;
69381;SDS011;56560;50.692;12.844;2022-12-07T03:56:47;11.20;;;3.38;;
69381;SDS011;56560;50.692;12.844;2022-12-07T03:59:14;11.07;;;3.17;;
69381;SDS011;56560;50.692;12.844;2022-12-07T04:01:45;9.85;;;3.22;;
69381;SDS011;56560;50.692;12.844;2022-12-07T04:04:21;11.37;;;3.47;;
69381;SDS011;56560;50.692;12.844;2022-12-07T04:06:48;11.38;;;3.42;;
69381;SDS011;56560;50.692;12.844;2022-12-07T04:09:14;10.50;;;3.20;;
69381;SDS011;56560;50.692;12.844;2022-12-07T04:11:40;9.83;;;3.13;;
69381;SDS011;56560;50.692;12.844;2022-12-07T04:14:06;11.88;;;2.97;;
69381;SDS011;56560;50.692;12.844;2022-12-07T04:16:44;11.60;;;3.50;;
69381;SDS011;56560;50.692;12.844;2022-12-07T04:19:10;9.45;;;2.72;;
69381;SDS011;56560;50.692;12.844;2022-12-07T04:21:36;9.80;;;2.90;;
69381;SDS011;56560;50.692;12.844;2022-12-07T04:24:02;8.18;;;2.38;;
69381;SDS011;56560;50.692;12.844;2022-12-07T04:26:29;10.02;;;2.90;;
69381;SDS011;56560;50.692;12.844;2022-12-07T04:28:54;10.23;;;3.50;;
69381;SDS011;56560;50.692;12.844;2022-12-07T04:31:20;18.27;;;5.27;;
69381;SDS011;56560;50.692;12.844;2022-12-07T04:33:45;14.38;;;4.43;;
69381;SDS011;56560;50.692;12.844;2022-12-07T04:36:11;13.10;;;3.80;;
69381;SDS011;56560;50.692;12.844;2022-12-07T04:38:37;5.97;;;1.90;;
69381;SDS011;56560;50.692;12.844;2022-12-07T04:41:06;6.45;;;2.42;;
69381;SDS011;56560;50.692;12.844;2022-12-07T04:43:33;10.70;;;3.17;;
69381;SDS011;56560;50.692;12.844;2022-12-07T04:45:59;10.97;;;3.20;;
69381;SDS011;56560;50.692;12.844;2022-12-07T04:48:25;13.85;;;3.72;;
69381;SDS011;56560;50.692;12.844;2022-12-07T04:50:51;9.07;;;2.63;;
69381;SDS011;56560;50.692;12.844;2022-12-07T04:53:17;13.73;;;3.83;;
69381;SDS011;56560;50.692;12.844;2022-12-07T04:55:43;14.23;;;4.00;;
69381;SDS011;56560;50.692;12.844;2022-12-07T04:58:09;15.20;;;4.00;;
69381;SDS011;56560;50.692;12.844;2022-12-07T05:00:35;11.13;;;3.47;;
69381;SDS011;56560;50.692;12.844;2022-12-07T05:03:00;9.30;;;2.83;;
69381;SDS011;56560;50.692;12.844;2022-12-07T05:05:26;8.30;;;2.60;;
69381;SDS011;56560;50.692;12.844;2022-12-07T05:07:52;6.43;;;2.20;;
69381;SDS011;56560;50.692;12.844;2022-12-07T05:10:17;11.73;;;3.58;;
69381;SDS011;56560;50.692;12.844;2022-12-07T05:12:43;11.93;;;3.57;;
69381;SDS011;56560;50.692;12.844;2022-12-07T05:15:09;11.48;;;3.70;;
69381;SDS011;56560;50.692;12.844;2022-12-07T05:17:34;12.17;;;3.87;;
69381;SDS011;56560;50.692;12.844;2022-12-07T05:20:00;12.80;;;4.25;;
69381;SDS011;56560;50.692;12.844;2022-12-07T05:22:25;13.23;;;4.00;;
69381;SDS011;56560;50.692;12.844;2022-12-07T05:24:53;11.73;;;3.83;;
69381;SDS011;56560;50.692;12.844;2022-12-07T05:27:19;10.13;;;3.40;;
69381;SDS011;56560;50.692;12.844;2022-12-07T05:29:45;18.57;;;4.17;;
69381;SDS011;56560;50.692;12.844;2022-12-07T05:32:11;11.07;;;3.70;;
69381;SDS011;56560;50.692;12.844;2022-12-07T05:34:37;11.80;;;3.87;;
69381;SDS011;56560;50.692;12.844;2022-12-07T05:37:02;14.75;;;4.05;;
69381;SDS011;56560;50.692;12.844;2022-12-07T05:39:28;11.03;;;4.07;;
69381;SDS011;56560;50.692;12.844;2022-12-07T05:41:54;12.20;;;3.45;;
69381;SDS011;56560;50.692;12.844;2022-12-07T05:44:38;11.57;;;3.15;;
69381;SDS011;56560;50.692;12.844;2022-12-07T05:47:04;13.43;;;4.18;;
69381;SDS011;56560;50.692;12.844;2022-12-07T05:49:30;14.48;;;4.65;;
69381;SDS011;56560;50.692;12.844;2022-12-07T05:51:55;12.73;;;4.50;;
69381;SDS011;56560;50.692;12.844;2022-12-07T05:54:21;11.32;;;3.55;;
69381;SDS011;56560;50.692;12.844;2022-12-07T05:56:47;13.63;;;4.13;;
69381;SDS011;56560;50.692;12.844;2022-12-07T05:59:13;10.98;;;3.47;;
69381;SDS011;56560;50.692;12.844;2022-12-07T06:01:57;8.40;;;2.92;;
69381;SDS011;56560;50.692;12.844;2022-12-07T06:04:26;11.73;;;3.97;;
69381;SDS011;56560;50.692;12.844;2022-12-07T06:06:53;14.60;;;4.47;;
69381;SDS011;56560;50.692;12.844;2022-12-07T06:09:19;9.05;;;2.92;;
69381;SDS011;56560;50.692;12.844;2022-12-07T06:11:46;13.67;;;5.00;;
69381;SDS011;56560;50.692;12.844;2022-12-07T06:14:31;15.75;;;5.20;;
69381;SDS011;56560;50.692;12.844;2022-12-07T06:16:57;13.70;;;4.47;;
69381;SDS011;56560;50.692;12.844;2022-12-07T06:19:23;15.60;;;5.03;;
69381;SDS011;56560;50.692;12.844;2022-12-07T06:21:48;15.03;;;4.93;;
69381;SDS011;56560;50.692;12.844;2022-12-07T06:24:14;17.23;;;6.13;;
69381;SDS011;56560;50.692;12.844;2022-12-07T06:26:41;15.48;;;5.40;;
69381;SDS011;56560;50.692;12.844;2022-12-07T06:29:07;12.82;;;4.30;;
69381;SDS011;56560;50.692;12.844;2022-12-07T06:31:33;17.35;;;6.63;;
69381;SDS011;56560;50.692;12.844;2022-12-07T06:33:59;13.90;;;4.97;;
69381;SDS011;56560;50.692;12.844;2022-12-07T06:36:25;16.30;;;5.18;;
69381;SDS011;56560;50.692;12.844;2022-12-07T06:38:51;14.93;;;4.97;;
69381;SDS011;56560;50.692;12.844;2022-12-07T06:41:17;13.73;;;4.37;;
69381;SDS011;56560;50.692;12.844;2022-12-07T06:43:43;17.25;;;5.90;;
69381;SDS011;56560;50.692;12.844;2022-12-07T06:46:08;19.27;;;6.37;;
69381;SDS011;56560;50.692;12.844;2022-12-07T06:48:34;16.07;;;5.40;;
69381;SDS011;56560;50.692;12.844;2022-12-07T06:50:59;13.65;;;4.25;;
69381;SDS011;56560;50.692;12.844;2022-12-07T06:53:25;15.90;;;5.53;;
69381;SDS011;56560;50.692;12.844;2022-12-07T06:55:51;11.77;;;3.67;;
69381;SDS011;56560;50.692;12.844;2022-12-07T06:58:17;18.50;;;6.10;;
69381;SDS011;56560;50.692;12.844;2022-12-07T07:00:43;14.02;;;5.38;;
69381;SDS011;56560;50.692;12.844;2022-12-07T07:03:09;11.52;;;4.00;;
69381;SDS011;56560;50.692;12.844;2022-12-07T07:05:35;18.13;;;5.87;;
69381;SDS011;56560;50.692;12.844;2022-12-07T07:08:00;15.98;;;5.25;;
69381;SDS011;56560;50.692;12.844;2022-12-07T07:10:26;16.33;;;5.93;;
69381;SDS011;56560;50.692;12.844;2022-12-07T07:12:52;16.27;;;5.30;;
69381;SDS011;56560;50.692;12.844;2022-12-07T07:15:18;16.88;;;6.05;;
69381;SDS011;56560;50.692;12.844;2022-12-07T07:17:43;9.83;;;3.23;;
69381;SDS011;56560;50.692;12.844;2022-12-07T07:20:09;16.95;;;6.03;;
69381;SDS011;56560;50.692;12.844;2022-12-07T07:22:35;18.50;;;6.20;;
69381;SDS011;56560;50.692;12.844;2022-12-07T07:25:01;13.83;;;4.83;;
69381;SDS011;56560;50.692;12.844;2022-12-07T07:27:26;19.70;;;6.57;;
69381;SDS011;56560;50.692;12.844;2022-12-07T07:29:52;17.67;;;6.53;;
69381;SDS011;56560;50.692;12.844;2022-12-07T07:32:17;16.67;;;6.10;;
69381;SDS011;56560;50.692;12.844;2022-12-07T07:34:43;14.88;;;4.80;;
69381;SDS011;56560;50.692;12.844;2022-12-07T07:37:09;18.98;;;6.45;;
69381;SDS011;56560;50.692;12.844;2022-12-07T07:39:37;16.75;;;6.07;;
69381;SDS011;56560;50.692;12.844;2022-12-07T07:42:03;16.53;;;5.97;;
69381;SDS011;56560;50.692;12.844;2022-12-07T07:44:29;41.50;;;13.38;;
69381;SDS011;56560;50.692;12.844;2022-12-07T07:46:55;64.38;;;18.98;;
69381;SDS011;56560;50.692;12.844;2022-12-07T07:49:21;37.03;;;11.03;;
69381;SDS011;56560;50.692;12.844;2022-12-07T07:51:46;41.23;;;11.23;;
69381;SDS011;56560;50.692;12.844;2022-12-07T07:54:12;20.50;;;7.45;;
69381;SDS011;56560;50.692;12.844;2022-12-07T07:56:37;24.60;;;9.07;;
69381;SDS011;56560;50.692;12.844;2022-12-07T07:59:03;26.17;;;8.65;;
69381;SDS011;56560;50.692;12.844;2022-12-07T08:01:29;22.65;;;7.97;;
69381;SDS011;56560;50.692;12.844;2022-12-07T08:03:54;15.67;;;5.17;;
69381;SDS011;56560;50.692;12.844;2022-12-07T08:06:20;19.52;;;6.82;;
69381;SDS011;56560;50.692;12.844;2022-12-07T08:08:45;17.67;;;5.50;;
69381;SDS011;56560;50.692;12.844;2022-12-07T08:11:11;16.43;;;5.80;;
69381;SDS011;56560;50.692;12.844;2022-12-07T08:13:37;15.43;;;4.80;;
69381;SDS011;56560;50.692;12.844;2022-12-07T08:16:07;18.98;;;6.25;;
69381;SDS011;56560;50.692;12.844;2022-12-07T08:18:37;18.77;;;6.07;;
69381;SDS011;56560;50.692;12.844;2022-12-07T08:21:05;17.95;;;6.85;;
69381;SDS011;56560;50.692;12.844;2022-12-07T08:23:31;16.15;;;6.10;;
69381;SDS011;56560;50.692;12.844;2022-12-07T08:26:00;17.63;;;5.65;;
69381;SDS011;56560;50.692;12.844;2022-12-07T08:28:27;17.43;;;6.53;;
69381;SDS011;56560;50.692;12.844;2022-12-07T08:30:58;20.50;;;6.40;;
69381;SDS011;56560;50.692;12.844;2022-12-07T08:33:24;18.83;;;6.60;;
69381;SDS011;56560;50.692;12.844;2022-12-07T08:35:50;21.67;;;7.03;;
69381;SDS011;56560;50.692;12.844;2022-12-07T08:38:16;18.10;;;6.47;;
69381;SDS011;56560;50.692;12.844;2022-12-07T08:40:42;15.10;;;5.43;;
69381;SDS011;56560;50.692;12.844;2022-12-07T08:43:07;19.87;;;6.47;;
69381;SDS011;56560;50.692;12.844;2022-12-07T08:45:33;18.07;;;6.20;;
69381;SDS011;56560;50.692;12.844;2022-12-07T08:50:32;11.82;;;4.47;;
69381;SDS011;56560;50.692;12.844;2022-12-07T08:52:59;16.85;;;5.68;;
69381;SDS011;56560;50.692;12.844;2022-12-07T08:55:26;19.15;;;6.85;;
69381;SDS011;56560;50.692;12.844;2022-12-07T08:57:53;15.10;;;5.20;;
69381;SDS011;56560;50.692;12.844;2022-12-07T09:00:19;16.08;;;4.65;;
69381;SDS011;56560;50.692;12.844;2022-12-07T09:02:45;13.88;;;5.05;;
69381;SDS011;56560;50.692;12.844;2022-12-07T09:05:11;19.27;;;6.28;;
69381;SDS011;56560;50.692;12.844;2022-12-07T09:07:39;18.07;;;6.33;;
69381;SDS011;56560;50.692;12.844;2022-12-07T09:10:07;19.83;;;7.15;;
69381;SDS011;56560;50.692;12.844;2022-12-07T09:12:33;16.08;;;5.65;;
69381;SDS011;56560;50.692;12.844;2022-12-07T09:14:59;18.47;;;6.57;;
69381;SDS011;56560;50.692;12.844;2022-12-07T09:17:25;16.67;;;6.13;;
69381;SDS011;56560;50.692;12.844;2022-12-07T09:19:51;14.88;;;5.30;;
69381;SDS011;56560;50.692;12.844;2022-12-07T09:22:17;14.57;;;5.47;;
69381;SDS011;56560;50.692;12.844;2022-12-07T09:24:42;15.55;;;5.38;;
69381;SDS011;56560;50.692;12.844;2022-12-07T09:27:10;17.33;;;5.80;;
69381;SDS011;56560;50.692;12.844;2022-12-07T09:29:36;11.75;;;4.30;;
69381;SDS011;56560;50.692;12.844;2022-12-07T09:32:02;15.82;;;5.80;;
69381;SDS011;56560;50.692;12.844;2022-12-07T09:34:30;12.83;;;4.03;;
69381;SDS011;56560;50.692;12.844;2022-12-07T09:36:56;17.30;;;6.13;;
69381;SDS011;56560;50.692;12.844;2022-12-07T09:39:22;13.23;;;4.60;;
69381;SDS011;56560;50.692;12.844;2022-12-07T09:41:48;15.53;;;5.37;;
69381;SDS011;56560;50.692;12.844;2022-12-07T09:44:19;15.43;;;5.55;;
69381;SDS011;56560;50.692;12.844;2022-12-07T09:46:48;11.45;;;4.22;;
69381;SDS011;56560;50.692;12.844;2022-12-07T09:49:16;14.27;;;5.47;;
69381;SDS011;56560;50.692;12.844;2022-12-07T09:51:47;18.38;;;5.88;;
69381;SDS011;56560;50.692;12.844;2022-12-07T09:54:23;14.35;;;4.97;;
69381;SDS011;56560;50.692;12.844;2022-12-07T09:56:49;13.23;;;4.75;;
69381;SDS011;56560;50.692;12.844;2022-12-07T09:59:17;14.93;;;5.70;;
69381;SDS011;56560;50.692;12.844;2022-12-07T10:01:43;10.93;;;3.58;;
69381;SDS011;56560;50.692;12.844;2022-12-07T10:06:47;9.02;;;3.17;;
69381;SDS011;56560;50.692;12.844;2022-12-07T10:09:17;19.00;;;5.95;;
69381;SDS011;56560;50.692;12.844;2022-12-07T10:14:28;12.88;;;4.50;;
69381;SDS011;56560;50.692;12.844;2022-12-07T10:16:55;14.27;;;5.47;;
69381;SDS011;56560;50.692;12.844;2022-12-07T10:19:25;8.87;;;3.07;;
69381;SDS011;56560;50.692;12.844;2022-12-07T10:22:15;12.77;;;4.80;;
69381;SDS011;56560;50.692;12.844;2022-12-07T10:24:47;14.88;;;5.30;;
69381;SDS011;56560;50.692;12.844;2022-12-07T10:27:31;10.30;;;3.25;;
69381;SDS011;56560;50.692;12.844;2022-12-07T10:29:57;13.43;;;4.47;;
69381;SDS011;56560;50.692;12.844;2022-12-07T10:32:28;12.55;;;4.65;;
69381;SDS011;56560;50.692;12.844;2022-12-07T10:35:18;13.93;;;5.63;;
69381;SDS011;56560;50.692;12.844;2022-12-07T10:37:50;11.32;;;3.85;;
69381;SDS011;56560;50.692;12.844;2022-12-07T10:43:05;13.00;;;5.17;;
69381;SDS011;56560;50.692;12.844;2022-12-07T10:45:41;14.38;;;5.13;;
69381;SDS011;56560;50.692;12.844;2022-12-07T11:14:56;14.15;;;4.40;;
69381;SDS011;56560;50.692;12.844;2022-12-07T11:20:41;11.38;;;3.97;;
69381;SDS011;56560;50.692;12.844;2022-12-07T11:33:57;12.40;;;4.53;;
69381;SDS011;56560;50.692;12.844;2022-12-07T11:36:52;11.20;;;3.67;;
69381;SDS011;56560;50.692;12.844;2022-12-07T11:42:03;12.02;;;3.90;;
69381;SDS011;56560;50.692;12.844;2022-12-07T11:44:37;13.37;;;4.40;;
69381;SDS011;56560;50.692;12.844;2022-12-07T11:47:08;13.13;;;4.05;;
69381;SDS011;56560;50.692;12.844;2022-12-07T11:53:39;15.68;;;5.88;;
69381;SDS011;56560;50.692;12.844;2022-12-07T12:03:45;7.75;;;2.67;;
69381;SDS011;56560;50.692;12.844;2022-12-07T12:06:12;11.98;;;3.80;;
69381;SDS011;56560;50.692;12.844;2022-12-07T12:08:43;12.07;;;3.45;;
69381;SDS011;56560;50.692;12.844;2022-12-07T12:25:27;11.60;;;3.83;;
69381;SDS011;56560;50.692;12.844;2022-12-07T12:28:05;13.23;;;4.72;;
69381;SDS011;56560;50.692;12.844;2022-12-07T12:33:03;9.40;;;3.00;;
69381;SDS011;56560;50.692;12.844;2022-12-07T12:35:41;8.45;;;2.83;;
69381;SDS011;56560;50.692;12.844;2022-12-07T12:38:46;9.55;;;3.00;;
69381;SDS011;56560;50.692;12.844;2022-12-07T12:41:50;10.20;;;2.75;;
69381;SDS011;56560;50.692;12.844;2022-12-07T12:51:46;8.48;;;2.40;;
69381;SDS011;56560;50.692;12.844;2022-12-07T12:54:32;9.10;;;2.50;;
69381;SDS011;56560;50.692;12.844;2022-12-07T13:10:54;28.83;;;10.40;;
69381;SDS011;56560;50.692;12.844;2022-12-07T13:31:31;6.95;;;2.20;;
69381;SDS011;56560;50.692;12.844;2022-12-07T13:34:01;7.85;;;2.20;;
69381;SDS011;56560;50.692;12.844;2022-12-07T13:36:32;6.55;;;2.10;;
69381;SDS011;56560;50.692;12.844;2022-12-07T13:41:43;7.18;;;2.33;;
69381;SDS011;56560;50.692;12.844;2022-12-07T13:44:11;8.43;;;2.30;;
69381;SDS011;56560;50.692;12.844;2022-12-07T13:51:54;7.03;;;2.30;;
69381;SDS011;56560;50.692;12.844;2022-12-07T13:54:31;11.32;;;2.80;;
69381;SDS011;56560;50.692;12.844;2022-12-07T13:56:57;11.05;;;2.70;;
69381;SDS011;56560;50.692;12.844;2022-12-07T13:59:24;8.02;;;2.47;;
69381;SDS011;56560;50.692;12.844;2022-12-07T14:01:51;7.33;;;2.23;;
69381;SDS011;56560;50.692;12.844;2022-12-07T14:06:50;7.10;;;2.13;;
69381;SDS011;56560;50.692;12.844;2022-12-07T14:09:21;7.27;;;2.50;;
69381;SDS011;56560;50.692;12.844;2022-12-07T14:11:51;8.80;;;2.85;;
69381;SDS011;56560;50.692;12.844;2022-12-07T14:14:29;20.88;;;7.50;;
69381;SDS011;56560;50.692;12.844;2022-12-07T14:16:58;9.63;;;2.85;;
69381;SDS011;56560;50.692;12.844;2022-12-07T14:19:47;8.68;;;2.70;;
69381;SDS011;56560;50.692;12.844;2022-12-07T14:25:02;13.15;;;5.47;;
69381;SDS011;56560;50.692;12.844;2022-12-07T14:27:38;13.35;;;4.70;;
69381;SDS011;56560;50.692;12.844;2022-12-07T14:30:04;12.82;;;4.50;;
69381;SDS011;56560;50.692;12.844;2022-12-07T14:32:53;9.37;;;3.10;;
69381;SDS011;56560;50.692;12.844;2022-12-07T14:35:23;9.32;;;2.38;;
69381;SDS011;56560;50.692;12.844;2022-12-07T14:37:49;7.32;;;2.80;;
69381;SDS011;56560;50.692;12.844;2022-12-07T14:40:37;7.03;;;2.40;;
69381;SDS011;56560;50.692;12.844;2022-12-07T14:43:04;7.93;;;2.40;;
69381;SDS011;56560;50.692;12.844;2022-12-07T14:45:33;9.80;;;2.92;;
69381;SDS011;56560;50.692;12.844;2022-12-07T14:47:59;10.00;;;2.83;;
69381;SDS011;56560;50.692;12.844;2022-12-07T14:50:25;9.43;;;2.70;;
69381;SDS011;56560;50.692;12.844;2022-12-07T14:52:52;7.53;;;2.30;;
69381;SDS011;56560;50.692;12.844;2022-12-07T14:57:50;8.63;;;2.58;;
69381;SDS011;56560;50.692;12.844;2022-12-07T15:00:17;9.10;;;2.90;;
69381;SDS011;56560;50.692;12.844;2022-12-07T15:02:44;10.35;;;3.28;;
69381;SDS011;56560;50.692;12.844;2022-12-07T15:05:10;13.50;;;4.30;;
69381;SDS011;56560;50.692;12.844;2022-12-07T15:07:36;22.15;;;7.78;;
69381;SDS011;56560;50.692;12.844;2022-12-07T15:10:02;16.42;;;5.50;;
69381;SDS011;56560;50.692;12.844;2022-12-07T15:12:28;14.23;;;4.72;;
69381;SDS011;56560;50.692;12.844;2022-12-07T15:14:54;11.05;;;3.70;;
69381;SDS011;56560;50.692;12.844;2022-12-07T15:17:23;8.87;;;3.13;;
69381;SDS011;56560;50.692;12.844;2022-12-07T15:19:49;9.77;;;3.03;;
69381;SDS011;56560;50.692;12.844;2022-12-07T15:22:14;10.75;;;3.47;;
69381;SDS011;56560;50.692;12.844;2022-12-07T15:24:40;7.03;;;2.40;;
69381;SDS011;56560;50.692;12.844;2022-12-07T15:27:06;8.88;;;3.00;;
69381;SDS011;56560;50.692;12.844;2022-12-07T15:29:32;9.80;;;3.20;;
69381;SDS011;56560;50.692;12.844;2022-12-07T15:31:57;9.10;;;2.60;;
69381;SDS011;56560;50.692;12.844;2022-12-07T15:34:26;7.85;;;2.47;;
69381;SDS011;56560;50.692;12.844;2022-12-07T15:36:53;6.90;;;2.47;;
69381;SDS011;56560;50.692;12.844;2022-12-07T15:39:19;8.80;;;2.67;;
69381;SDS011;56560;50.692;12.844;2022-12-07T15:41:45;7.93;;;2.50;;
69381;SDS011;56560;50.692;12.844;2022-12-07T15:44:13;11.67;;;4.27;;
69381;SDS011;56560;50.692;12.844;2022-12-07T15:46:58;14.23;;;4.50;;
69381;SDS011;56560;50.692;12.844;2022-12-07T15:49:24;13.70;;;4.28;;
69381;SDS011;56560;50.692;12.844;2022-12-07T15:51:50;9.05;;;2.78;;
69381;SDS011;56560;50.692;12.844;2022-12-07T15:54:21;7.07;;;1.80;;
69381;SDS011;56560;50.692;12.844;2022-12-07T15:56:51;15.80;;;5.63;;
69381;SDS011;56560;50.692;12.844;2022-12-07T15:59:17;7.80;;;2.25;;
69381;SDS011;56560;50.692;12.844;2022-12-07T16:01:43;12.07;;;2.70;;
69381;SDS011;56560;50.692;12.844;2022-12-07T16:04:10;8.27;;;2.40;;
69381;SDS011;56560;50.692;12.844;2022-12-07T16:06:36;9.88;;;2.80;;
69381;SDS011;56560;50.692;12.844;2022-12-07T16:09:02;17.50;;;5.80;;
69381;SDS011;56560;50.692;12.844;2022-12-07T16:11:27;10.50;;;3.30;;
69381;SDS011;56560;50.692;12.844;2022-12-07T16:13:53;9.25;;;3.20;;
69381;SDS011;56560;50.692;12.844;2022-12-07T16:16:19;10.87;;;2.70;;
69381;SDS011;56560;50.692;12.844;2022-12-07T16:18:47;7.95;;;2.42;;
69381;SDS011;56560;50.692;12.844;2022-12-07T16:21:14;9.10;;;2.78;;
69381;SDS011;56560;50.692;12.844;2022-12-07T16:23:40;9.83;;;2.90;;
69381;SDS011;56560;50.692;12.844;2022-12-07T16:26:07;9.82;;;3.55;;
69381;SDS011;56560;50.692;12.844;2022-12-07T16:28:35;10.65;;;3.60;;
69381;SDS011;56560;50.692;12.844;2022-12-07T16:31:05;12.53;;;2.93;;
69381;SDS011;56560;50.692;12.844;2022-12-07T16:33:36;10.40;;;3.33;;
69381;SDS011;56560;50.692;12.844;2022-12-07T16:36:03;11.77;;;3.60;;
69381;SDS011;56560;50.692;12.844;2022-12-07T16:38:31;13.45;;;3.50;;
69381;SDS011;56560;50.692;12.844;2022-12-07T16:40:56;10.47;;;3.90;;
69381;SDS011;56560;50.692;12.844;2022-12-07T16:43:22;13.80;;;4.40;;
69381;SDS011;56560;50.692;12.844;2022-12-07T16:45:48;11.57;;;4.33;;
69381;SDS011;56560;50.692;12.844;2022-12-07T16:48:15;10.07;;;3.30;;
69381;SDS011;56560;50.692;12.844;2022-12-07T16:50:41;12.40;;;4.50;;
69381;SDS011;56560;50.692;12.844;2022-12-07T16:53:08;16.65;;;4.90;;
69381;SDS011;56560;50.692;12.844;2022-12-07T16:55:38;31.02;;;11.00;;
69381;SDS011;56560;50.692;12.844;2022-12-07T16:58:04;18.90;;;5.50;;
69381;SDS011;56560;50.692;12.844;2022-12-07T17:00:30;23.45;;;6.75;;
69381;SDS011;56560;50.692;12.844;2022-12-07T17:02:56;18.13;;;6.03;;
69381;SDS011;56560;50.692;12.844;2022-12-07T17:05:22;13.77;;;4.43;;
69381;SDS011;56560;50.692;12.844;2022-12-07T17:07:48;25.55;;;8.93;;
69381;SDS011;56560;50.692;12.844;2022-12-07T17:10:14;20.60;;;7.47;;
69381;SDS011;56560;50.692;12.844;2022-12-07T17:12:39;28.45;;;11.05;;
69381;SDS011;56560;50.692;12.844;2022-12-07T17:15:05;18.33;;;5.87;;
69381;SDS011;56560;50.692;12.844;2022-12-07T17:17:46;11.50;;;3.60;;
69381;SDS011;56560;50.692;12.844;2022-12-07T17:20:17;15.32;;;5.40;;
69381;SDS011;56560;50.692;12.844;2022-12-07T17:22:43;37.35;;;15.45;;
69381;SDS011;56560;50.692;12.844;2022-12-07T17:25:10;8.60;;;2.70;;
69381;SDS011;56560;50.692;12.844;2022-12-07T17:27:36;29.42;;;11.65;;
69381;SDS011;56560;50.692;12.844;2022-12-07T17:30:05;27.40;;;11.40;;
69381;SDS011;56560;50.692;12.844;2022-12-07T17:32:32;58.53;;;27.75;;
69381;SDS011;56560;50.692;12.844;2022-12-07T17:34:58;30.55;;;10.75;;